createdAt,value
2023-10-26T00:00:42.879Z,25.67
2023-10-26T00:03:10.034Z,27.33
2023-10-26T00:05:37.327Z,25.90
2023-10-26T00:08:04.524Z,27.70
2023-10-26T00:10:31.297Z,31.23
2023-10-26T00:12:58.140Z,28.10
2023-10-26T00:15:25.259Z,31.07
2023-10-26T00:17:52.174Z,26.67
2023-10-26T00:20:19.097Z,33.73
2023-10-26T00:22:46.876Z,28.23
2023-10-26T00:25:13.964Z,28.13
2023-10-26T00:27:43.392Z,37.70
2023-10-26T00:30:12.332Z,34.50
2023-10-26T00:32:39.488Z,37.27
2023-10-26T00:35:06.796Z,37.70
2023-10-26T00:37:33.861Z,32.37
2023-10-26T00:40:00.675Z,36.00
2023-10-26T00:42:28.084Z,30.20
2023-10-26T00:44:58.200Z,33.23
2023-10-26T00:47:26.995Z,30.90
2023-10-26T00:49:55.189Z,29.27
2023-10-26T00:52:24.180Z,30.37
2023-10-26T00:54:53.069Z,26.17
2023-10-26T00:57:24.079Z,30.10
2023-10-26T00:59:52.111Z,28.43
2023-10-26T01:02:21.033Z,34.47
2023-10-26T01:04:48.465Z,33.00
2023-10-26T01:07:15.317Z,39.50
2023-10-26T01:09:42.393Z,32.83
2023-10-26T01:12:09.700Z,34.40
2023-10-26T01:14:36.930Z,33.17
2023-10-26T01:17:04.230Z,31.10
2023-10-26T01:19:44.552Z,32.90
2023-10-26T01:22:11.720Z,34.97
2023-10-26T01:24:39.088Z,31.77
2023-10-26T01:27:06.125Z,32.70
2023-10-26T01:29:33.659Z,30.53
2023-10-26T01:32:00.964Z,34.67
2023-10-26T01:34:28.181Z,31.93
2023-10-26T01:36:55.256Z,33.73
2023-10-26T01:39:22.119Z,35.43
2023-10-26T01:41:49.116Z,35.43
2023-10-26T01:44:16.250Z,35.93
2023-10-26T01:46:43.139Z,40.50
2023-10-26T01:49:10.879Z,36.70
2023-10-26T01:51:37.853Z,36.07
2023-10-26T01:54:04.816Z,39.63
2023-10-26T01:56:32.187Z,32.07
2023-10-26T01:58:59.427Z,29.83
2023-10-26T02:01:26.292Z,28.20
2023-10-26T02:03:53.226Z,24.73
2023-10-26T02:06:20.463Z,28.63
2023-10-26T02:08:47.340Z,24.40
2023-10-26T02:11:14.678Z,27.37
2023-10-26T02:13:41.640Z,27.40
2023-10-26T02:16:08.624Z,32.33
2023-10-26T02:18:35.570Z,28.27
2023-10-26T02:21:03.313Z,27.60
2023-10-26T02:23:30.249Z,30.03
2023-10-26T02:25:57.566Z,29.73
2023-10-26T02:28:24.695Z,33.17
2023-10-26T02:30:52.514Z,29.70
2023-10-26T02:33:19.744Z,29.53
2023-10-26T02:35:46.943Z,27.20
2023-10-26T02:38:13.826Z,28.43
2023-10-26T02:40:40.829Z,31.27
2023-10-26T02:43:08.314Z,32.77
2023-10-26T02:45:35.929Z,31.50
2023-10-26T02:48:05.793Z,26.20
2023-10-26T02:50:33.800Z,27.17
2023-10-26T02:53:01.749Z,27.87
2023-10-26T02:55:28.549Z,28.20
2023-10-26T02:57:55.579Z,28.87
2023-10-26T03:07:12.266Z,23.90
2023-10-26T03:09:39.109Z,19.33
2023-10-26T03:12:06.327Z,20.97
2023-10-26T03:14:33.357Z,20.57
2023-10-26T03:17:00.170Z,18.57
2023-10-26T03:19:27.174Z,17.13
2023-10-26T03:21:54.167Z,18.30
2023-10-26T03:24:21.026Z,22.03
2023-10-26T03:26:48.015Z,21.43
2023-10-26T03:29:15.983Z,22.17
2023-10-26T03:31:44.617Z,23.17
2023-10-26T03:34:11.563Z,20.10
2023-10-26T03:36:38.391Z,19.93
2023-10-26T03:39:05.719Z,18.90
2023-10-26T03:41:32.682Z,17.07
2023-10-26T03:43:59.545Z,17.03
2023-10-26T03:46:26.394Z,16.77
2023-10-26T03:48:53.353Z,15.37
2023-10-26T03:51:22.003Z,15.17
2023-10-26T03:53:48.956Z,14.47
2023-10-26T03:56:15.952Z,14.73
2023-10-26T03:58:42.742Z,16.63
2023-10-26T04:01:09.517Z,17.07
2023-10-26T04:03:36.543Z,15.60
2023-10-26T04:06:04.335Z,13.73
2023-10-26T04:08:31.494Z,16.50
2023-10-26T04:10:58.889Z,14.67
2023-10-26T04:13:31.423Z,14.07
2023-10-26T04:16:02.927Z,15.03
2023-10-26T04:18:30.333Z,14.67
2023-10-26T04:20:57.423Z,15.53
2023-10-26T04:23:24.488Z,18.40
2023-10-26T04:25:55.187Z,17.63
2023-10-26T04:28:22.854Z,17.17
2023-10-26T04:30:50.582Z,15.43
2023-10-26T04:33:18.431Z,18.90
2023-10-26T04:35:46.295Z,15.57
2023-10-26T04:38:13.568Z,18.57
2023-10-26T04:40:41.529Z,17.97
2023-10-26T04:43:09.932Z,19.00
2023-10-26T04:45:37.045Z,20.27
2023-10-26T04:48:04.370Z,18.53
2023-10-26T04:50:32.139Z,22.63
2023-10-26T04:53:03.787Z,21.90
2023-10-26T04:55:36.732Z,20.93
2023-10-26T04:58:05.157Z,19.00
2023-10-26T05:00:33.340Z,21.47
2023-10-26T05:03:00.325Z,17.87
2023-10-26T05:05:27.867Z,17.03
2023-10-26T05:07:55.047Z,19.87
2023-10-26T05:10:22.322Z,17.03
2023-10-26T05:12:49.316Z,17.83
2023-10-26T05:15:16.160Z,17.00
2023-10-26T05:17:43.133Z,15.03
2023-10-26T05:20:10.824Z,13.47
2023-10-26T05:22:38.209Z,12.47
2023-10-26T05:25:06.080Z,15.17
2023-10-26T05:27:37.195Z,12.60
2023-10-26T05:30:05.979Z,11.27
2023-10-26T05:32:35.320Z,11.77
2023-10-26T05:35:02.545Z,9.27
2023-10-26T05:37:29.360Z,7.37
2023-10-26T05:39:56.110Z,7.70
2023-10-26T05:42:23.227Z,7.00
2023-10-26T05:44:50.045Z,6.90
2023-10-26T05:47:20.069Z,6.43
2023-10-26T05:49:48.211Z,7.00
2023-10-26T05:52:15.501Z,6.67
2023-10-26T05:54:42.956Z,8.10
2023-10-26T05:57:09.997Z,7.37
2023-10-26T05:59:36.874Z,6.60
2023-10-26T06:02:04.008Z,6.70
2023-10-26T06:04:30.966Z,9.70
2023-10-26T06:06:57.795Z,6.93
2023-10-26T06:09:25.983Z,7.37
2023-10-26T06:11:53.376Z,7.90
2023-10-26T06:14:20.540Z,8.00
2023-10-26T06:16:47.612Z,7.40
2023-10-26T06:19:14.748Z,7.37
2023-10-26T06:21:41.631Z,6.77
2023-10-26T06:24:09.030Z,9.30
2023-10-26T06:26:36.082Z,6.90
2023-10-26T06:29:02.928Z,8.03
2023-10-26T06:31:29.924Z,7.23
2023-10-26T06:33:56.947Z,7.33
2023-10-26T06:36:23.823Z,6.87
2023-10-26T06:38:50.888Z,7.47
2023-10-26T06:41:17.793Z,6.67
2023-10-26T06:43:44.602Z,6.77
2023-10-26T06:46:11.943Z,7.27
2023-10-26T06:48:38.902Z,7.07
2023-10-26T06:51:07.074Z,7.33
2023-10-26T06:53:34.436Z,7.40
2023-10-26T06:56:01.417Z,7.07
2023-10-26T06:58:28.819Z,6.93
2023-10-26T07:00:55.994Z,7.13
2023-10-26T07:03:23.140Z,8.17
2023-10-26T07:05:50.348Z,8.30
2023-10-26T07:08:18.118Z,8.80
2023-10-26T07:10:45.225Z,7.47
2023-10-26T07:13:13.054Z,8.33
2023-10-26T07:15:40.508Z,8.43
2023-10-26T07:18:07.609Z,10.13
2023-10-26T07:20:34.609Z,7.53
2023-10-26T07:23:01.705Z,8.00
2023-10-26T07:25:28.774Z,8.43
2023-10-26T07:27:56.150Z,7.63
2023-10-26T07:30:24.017Z,7.20
2023-10-26T07:32:51.266Z,7.60
2023-10-26T07:35:18.566Z,7.80
2023-10-26T07:37:52.124Z,9.73
2023-10-26T07:40:28.815Z,8.87
2023-10-26T07:42:56.938Z,8.90
2023-10-26T07:45:23.788Z,7.40
2023-10-26T07:47:50.928Z,7.13
2023-10-26T07:50:21.207Z,7.17
2023-10-26T07:52:49.189Z,8.23
2023-10-26T07:55:16.629Z,6.13
2023-10-26T07:57:43.742Z,7.53
2023-10-26T08:00:12.831Z,6.23
2023-10-26T08:02:41.325Z,6.33
2023-10-26T08:05:09.788Z,8.60
2023-10-26T08:07:40.750Z,6.63
2023-10-26T08:10:09.474Z,6.00
2023-10-26T08:12:36.564Z,6.90
2023-10-26T08:16:09.794Z,8.67
2023-10-26T08:17:51.206Z,7.20
2023-10-26T08:20:18.461Z,6.53
2023-10-26T08:22:45.418Z,5.83
2023-10-26T08:25:12.811Z,6.90
2023-10-26T08:27:40.910Z,5.97
2023-10-26T08:30:08.394Z,6.37
2023-10-26T08:32:37.474Z,5.73
2023-10-26T08:35:05.041Z,5.43
2023-10-26T08:37:31.967Z,6.93
2023-10-26T08:39:58.806Z,5.77
2023-10-26T08:42:25.859Z,4.40
2023-10-26T08:44:56.815Z,5.83
2023-10-26T08:47:28.474Z,4.33
2023-10-26T08:50:14.798Z,5.20
2023-10-26T08:52:43.376Z,6.80
2023-10-26T08:55:10.423Z,8.43
2023-10-26T08:57:48.615Z,5.10
2023-10-26T09:00:16.697Z,4.90
2023-10-26T09:02:44.144Z,7.10
2023-10-26T09:05:12.315Z,8.77
2023-10-26T09:07:39.783Z,5.57
2023-10-26T09:10:07.284Z,5.87
2023-10-26T09:12:34.676Z,5.93
2023-10-26T09:15:09.685Z,5.83
2023-10-26T09:17:37.197Z,6.47
2023-10-26T09:20:23.259Z,6.07
2023-10-26T09:22:50.424Z,5.80
2023-10-26T09:25:17.723Z,6.07
2023-10-26T09:27:49.858Z,6.60
2023-10-26T09:30:29.468Z,6.17
2023-10-26T09:32:58.252Z,5.37
2023-10-26T09:35:34.351Z,6.13
2023-10-26T09:38:01.581Z,6.33
2023-10-26T09:40:28.795Z,5.60
2023-10-26T09:42:59.736Z,11.93
2023-10-26T09:45:27.276Z,9.97
2023-10-26T09:47:54.709Z,6.90
2023-10-26T09:50:22.545Z,6.33
2023-10-26T09:52:49.977Z,7.43
2023-10-26T09:55:17.809Z,5.90
2023-10-26T09:57:57.883Z,6.70
2023-10-26T10:00:36.069Z,6.30
2023-10-26T10:03:16.168Z,5.80
2023-10-26T10:05:44.948Z,5.67
2023-10-26T10:08:12.352Z,5.83
2023-10-26T10:11:15.797Z,5.50
2023-10-26T10:13:42.577Z,5.63
2023-10-26T10:16:48.534Z,5.87
2023-10-26T10:19:24.448Z,5.60
2023-10-26T10:21:53.544Z,6.10
2023-10-26T10:24:42.915Z,6.77
2023-10-26T10:27:16.122Z,5.70
2023-10-26T10:29:44.013Z,5.50
2023-10-26T10:32:46.409Z,5.97
2023-10-26T10:35:34.418Z,5.63
2023-10-26T10:38:19.767Z,5.93
2023-10-26T10:40:55.501Z,6.80
2023-10-26T10:43:47.185Z,6.27
2023-10-26T10:46:27.344Z,7.77
2023-10-26T10:49:10.812Z,7.13
2023-10-26T10:51:46.730Z,5.70
2023-10-26T10:56:49.314Z,4.53
2023-10-26T10:59:23.121Z,4.57
2023-10-26T11:01:51.719Z,5.80
2023-10-26T11:04:21.708Z,4.67
2023-10-26T11:06:51.066Z,4.27
2023-10-26T11:09:28.346Z,4.03
2023-10-26T11:11:56.105Z,4.47
2023-10-26T11:14:23.515Z,4.60
2023-10-26T11:16:51.409Z,3.60
2023-10-26T11:19:19.108Z,3.87
2023-10-26T11:21:46.167Z,5.80
2023-10-26T11:24:19.368Z,4.27
2023-10-26T11:27:10.599Z,4.50
2023-10-26T11:29:39.034Z,3.70
2023-10-26T11:32:22.263Z,4.30
2023-10-26T11:35:07.526Z,4.90
2023-10-26T11:37:39.256Z,3.97
2023-10-26T11:40:07.743Z,4.03
2023-10-26T11:42:54.813Z,3.80
2023-10-26T11:45:23.799Z,4.00
2023-10-26T11:47:54.782Z,4.10
2023-10-26T11:50:27.432Z,4.57
2023-10-26T11:53:04.828Z,3.93
2023-10-26T11:55:34.199Z,4.00
2023-10-26T11:58:02.435Z,4.30
2023-10-26T12:00:30.517Z,5.20
2023-10-26T12:02:58.796Z,3.87
2023-10-26T12:05:27.138Z,4.40
2023-10-26T12:07:55.357Z,4.23
2023-10-26T12:10:24.899Z,5.60
2023-10-26T12:12:52.958Z,4.20
2023-10-26T12:15:21.775Z,3.10
2023-10-26T12:17:50.196Z,4.20
2023-10-26T12:20:17.683Z,13.37
2023-10-26T12:22:44.889Z,19.00
2023-10-26T12:25:15.149Z,8.13
2023-10-26T12:28:21.680Z,5.30
2023-10-26T12:30:29.746Z,3.17
2023-10-26T12:32:57.199Z,4.00
2023-10-26T12:35:24.723Z,5.07
2023-10-26T12:37:52.695Z,3.33
2023-10-26T12:40:21.436Z,3.57
2023-10-26T12:42:48.464Z,4.33
2023-10-26T12:45:18.289Z,5.50
2023-10-26T12:47:45.140Z,2.50
2023-10-26T12:50:12.085Z,18.77
2023-10-26T12:52:39.110Z,55.47
2023-10-26T12:55:06.187Z,20.33
2023-10-26T12:57:33.049Z,3.03
2023-10-26T13:00:00.091Z,4.80
2023-10-26T13:02:27.007Z,4.20
2023-10-26T13:04:53.897Z,3.67
2023-10-26T13:07:23.613Z,3.27
2023-10-26T13:09:50.596Z,3.40
2023-10-26T13:12:17.462Z,3.60
2023-10-26T13:14:45.128Z,3.10
2023-10-26T13:17:15.849Z,5.10
2023-10-26T13:19:42.814Z,3.33
2023-10-26T13:22:10.047Z,2.50
2023-10-26T13:24:36.939Z,11.00
2023-10-26T13:27:04.008Z,6.67
2023-10-26T13:29:31.043Z,3.03
2023-10-26T13:31:58.856Z,3.57
2023-10-26T13:34:25.934Z,99.40
2023-10-26T13:36:52.945Z,10.53
2023-10-26T13:39:22.363Z,2.47
2023-10-26T13:41:49.267Z,2.60
2023-10-26T13:44:16.297Z,3.33
2023-10-26T13:46:43.228Z,2.80
2023-10-26T13:49:11.262Z,3.03
2023-10-26T13:51:38.274Z,3.63
2023-10-26T13:54:05.316Z,3.60
2023-10-26T13:56:34.053Z,3.50
2023-10-26T13:59:00.872Z,4.27
2023-10-26T14:01:28.562Z,6.03
2023-10-26T14:03:55.569Z,3.50
2023-10-26T14:06:26.588Z,4.83
2023-10-26T14:08:54.205Z,3.10
2023-10-26T14:11:21.301Z,3.00
2023-10-26T14:13:48.103Z,3.87
2023-10-26T14:16:16.763Z,3.13
2023-10-26T14:18:43.867Z,2.70
2023-10-26T14:21:10.650Z,3.37
2023-10-26T14:23:37.386Z,3.33
2023-10-26T14:26:04.450Z,3.40
2023-10-26T14:28:31.415Z,3.97
2023-10-26T14:31:01.398Z,3.17
2023-10-26T14:33:28.618Z,2.93
2023-10-26T14:35:55.704Z,2.80
2023-10-26T14:38:22.575Z,4.20
2023-10-26T14:40:59.554Z,3.57
2023-10-26T14:43:27.188Z,3.47
2023-10-26T14:45:54.595Z,4.10
2023-10-26T14:48:21.940Z,4.50
2023-10-26T14:50:48.862Z,5.27
2023-10-26T14:53:15.988Z,4.90
2023-10-26T14:55:43.020Z,6.17
2023-10-26T14:58:10.270Z,5.20
2023-10-26T15:00:40.663Z,4.93
2023-10-26T15:03:08.058Z,5.87
2023-10-26T15:05:35.690Z,5.80
2023-10-26T15:08:05.668Z,6.13
2023-10-26T15:10:37.567Z,5.80
2023-10-26T15:13:05.800Z,6.60
2023-10-26T15:15:33.035Z,7.30
2023-10-26T15:18:00.275Z,6.17
2023-10-26T15:20:27.235Z,7.07
2023-10-26T15:22:54.277Z,6.50
2023-10-26T15:25:21.464Z,6.17
2023-10-26T15:27:48.325Z,6.67
2023-10-26T15:30:15.544Z,7.20
2023-10-26T15:32:42.386Z,7.77
2023-10-26T15:35:09.475Z,6.33
2023-10-26T15:37:36.806Z,7.43
2023-10-26T15:40:04.329Z,8.93
2023-10-26T15:42:31.628Z,8.03
2023-10-26T15:44:58.760Z,8.53
2023-10-26T15:47:25.885Z,8.47
2023-10-26T15:49:52.952Z,8.23
2023-10-26T15:52:20.309Z,8.60
2023-10-26T15:54:47.333Z,9.77
2023-10-26T15:57:16.037Z,10.40
2023-10-26T15:59:43.619Z,9.70
2023-10-26T16:02:10.524Z,10.83
2023-10-26T16:04:37.653Z,11.67
2023-10-26T16:07:05.329Z,11.23
2023-10-26T16:09:34.991Z,11.43
2023-10-26T16:12:03.906Z,11.60
2023-10-26T16:14:30.814Z,10.90
2023-10-26T16:16:57.636Z,11.83
2023-10-26T16:19:24.738Z,11.30
2023-10-26T16:21:51.736Z,11.83
2023-10-26T16:24:19.333Z,11.17
2023-10-26T16:26:46.199Z,12.03
2023-10-26T16:29:13.277Z,12.93
2023-10-26T16:31:40.112Z,11.63
2023-10-26T16:34:07.182Z,13.27
2023-10-26T16:36:34.462Z,13.93
2023-10-26T16:39:01.914Z,13.53
2023-10-26T16:41:28.812Z,21.37
2023-10-26T16:43:55.965Z,14.27
2023-10-26T16:46:23.017Z,15.50
2023-10-26T16:48:50.227Z,15.20
2023-10-26T16:51:17.430Z,16.60
2023-10-26T16:53:44.336Z,15.07
2023-10-26T16:56:11.295Z,18.67
2023-10-26T16:58:38.853Z,16.97
2023-10-26T17:01:09.337Z,17.77
2023-10-26T17:03:36.288Z,16.63
2023-10-26T17:06:05.263Z,16.27
2023-10-26T17:08:35.019Z,19.83
2023-10-26T17:11:02.017Z,18.90
2023-10-26T17:13:29.222Z,20.97
2023-10-26T17:15:56.342Z,19.00
2023-10-26T17:18:23.489Z,19.87
2023-10-26T17:20:50.656Z,18.60
2023-10-26T17:23:17.908Z,18.57
2023-10-26T17:25:45.273Z,25.57
2023-10-26T17:28:12.208Z,18.80
2023-10-26T17:30:39.277Z,21.17
2023-10-26T17:33:11.699Z,19.63
2023-10-26T17:35:44.463Z,18.20
2023-10-26T17:38:12.336Z,21.80
2023-10-26T17:40:39.504Z,20.13
2023-10-26T17:43:07.302Z,19.20
2023-10-26T17:45:34.822Z,21.53
2023-10-26T17:48:01.993Z,18.07
2023-10-26T17:50:28.974Z,21.13
2023-10-26T17:52:56.065Z,18.73
2023-10-26T17:55:23.237Z,18.73
2023-10-26T17:57:50.278Z,21.73
2023-10-26T18:00:18.221Z,18.40
2023-10-26T18:02:45.269Z,17.67
2023-10-26T18:05:12.930Z,17.27
2023-10-26T18:07:40.162Z,18.37
2023-10-26T18:10:07.842Z,19.70
2023-10-26T18:12:35.906Z,18.63
2023-10-26T18:15:03.364Z,19.67
2023-10-26T18:17:30.533Z,18.00
2023-10-26T18:19:57.675Z,16.03
2023-10-26T18:22:25.138Z,18.73
2023-10-26T18:24:52.145Z,21.10
2023-10-26T18:27:19.552Z,18.27
2023-10-26T18:29:48.308Z,17.67
2023-10-26T18:32:16.045Z,15.73
2023-10-26T18:34:44.052Z,18.20
2023-10-26T18:37:11.291Z,16.53
2023-10-26T18:39:38.499Z,15.87
2023-10-26T18:42:06.343Z,16.03
2023-10-26T18:44:34.114Z,15.70
2023-10-26T18:47:01.656Z,16.63
2023-10-26T18:49:29.046Z,16.50
2023-10-26T18:51:56.583Z,16.57
2023-10-26T18:54:23.538Z,18.83
2023-10-26T18:56:50.689Z,22.70
2023-10-26T18:59:24.947Z,18.67
2023-10-26T19:01:52.067Z,16.87
2023-10-26T19:04:19.176Z,19.43
2023-10-26T19:06:46.619Z,18.80
2023-10-26T19:09:13.660Z,19.47
2023-10-26T19:11:40.766Z,22.43
2023-10-26T19:14:07.939Z,19.17
2023-10-26T19:16:35.238Z,22.63
2023-10-26T19:19:02.353Z,22.07
2023-10-26T19:21:29.854Z,23.77
2023-10-26T19:23:57.011Z,20.57
2023-10-26T19:26:24.058Z,21.90
2023-10-26T19:28:51.189Z,21.97
2023-10-26T19:31:18.368Z,22.97
2023-10-26T19:33:47.943Z,25.00
2023-10-26T19:36:15.150Z,24.73
2023-10-26T19:38:42.125Z,25.97
2023-10-26T19:41:13.028Z,26.20
2023-10-26T19:43:40.222Z,27.43
2023-10-26T19:46:07.204Z,26.90
2023-10-26T19:48:34.592Z,36.93
2023-10-26T19:51:04.368Z,29.37
2023-10-26T19:53:36.434Z,36.07
2023-10-26T19:56:04.115Z,32.53
2023-10-26T19:58:31.268Z,38.40
2023-10-26T20:00:58.644Z,37.23
2023-10-26T20:03:25.506Z,40.17
2023-10-26T20:05:52.597Z,40.73
2023-10-26T20:08:19.706Z,40.00
2023-10-26T20:10:47.338Z,42.40
2023-10-26T20:13:14.447Z,41.37
2023-10-26T20:15:41.860Z,46.17
2023-10-26T20:18:13.732Z,42.70
2023-10-26T20:20:40.800Z,50.27
2023-10-26T20:23:08.596Z,51.27
2023-10-26T20:25:35.598Z,51.20
2023-10-26T20:28:03.401Z,50.57
2023-10-26T20:30:32.104Z,50.10
2023-10-26T20:32:59.326Z,46.30
2023-10-26T20:35:26.451Z,45.77
2023-10-26T20:37:53.970Z,40.47
2023-10-26T20:40:21.022Z,50.87
2023-10-26T20:42:50.295Z,46.40
2023-10-26T20:45:17.602Z,40.60
2023-10-26T20:47:44.530Z,49.30
2023-10-26T20:50:12.836Z,44.10
2023-10-26T20:52:40.186Z,44.67
2023-10-26T20:55:07.344Z,42.50
2023-10-26T20:57:34.328Z,39.43
2023-10-26T21:00:01.505Z,40.67
2023-10-26T21:02:28.484Z,39.77
2023-10-26T21:05:00.168Z,37.33
2023-10-26T21:07:27.931Z,43.50
2023-10-26T21:09:54.858Z,40.97
2023-10-26T21:12:23.183Z,44.47
2023-10-26T21:14:54.785Z,45.10
2023-10-26T21:17:22.122Z,48.77
2023-10-26T21:19:49.373Z,48.97
2023-10-26T21:22:16.548Z,48.40
2023-10-26T21:24:48.192Z,50.03
2023-10-26T21:27:15.749Z,51.90
2023-10-26T21:29:44.821Z,57.00
2023-10-26T21:32:11.822Z,57.27
2023-10-26T21:34:39.048Z,55.03
2023-10-26T21:37:06.055Z,57.97
2023-10-26T21:39:32.958Z,58.77
2023-10-26T21:42:00.105Z,67.27
2023-10-26T21:44:27.105Z,57.77
2023-10-26T21:46:57.036Z,55.70
2023-10-26T21:49:24.187Z,64.07
2023-10-26T21:51:51.289Z,65.37
2023-10-26T21:54:18.191Z,70.93
2023-10-26T21:56:45.716Z,66.40
2023-10-26T21:59:12.577Z,75.43
2023-10-26T22:01:39.540Z,70.83
2023-10-26T22:04:21.452Z,82.13
2023-10-26T22:06:49.657Z,83.97
2023-10-26T22:09:18.158Z,90.47
2023-10-26T22:11:45.278Z,148.10
2023-10-26T22:14:12.422Z,128.67
2023-10-26T22:16:41.059Z,142.40
2023-10-26T22:19:08.309Z,95.00
2023-10-26T22:21:35.391Z,102.50
2023-10-26T22:24:05.464Z,111.10
2023-10-26T22:26:35.351Z,170.10
2023-10-26T22:29:02.446Z,150.23
2023-10-26T22:31:30.197Z,474.63
2023-10-26T22:33:57.217Z,654.47
2023-10-26T22:36:24.297Z,703.13
2023-10-26T22:38:55.263Z,750.73
2023-10-26T22:41:22.756Z,709.93
2023-10-26T22:43:49.712Z,598.93
2023-10-26T22:46:20.140Z,639.67
2023-10-26T22:48:47.151Z,961.57
2023-10-26T22:51:14.198Z,905.60
2023-10-26T22:53:41.251Z,658.07
2023-10-26T22:56:09.926Z,573.17
2023-10-26T22:58:36.813Z,550.47
2023-10-26T23:01:07.213Z,523.63
2023-10-26T23:03:34.598Z,357.17
2023-10-26T23:06:01.562Z,466.47
2023-10-26T23:08:28.446Z,629.63
2023-10-26T23:10:55.379Z,601.07
2023-10-26T23:13:22.417Z,567.40
2023-10-26T23:15:49.661Z,486.13
2023-10-26T23:18:16.669Z,629.47
2023-10-26T23:20:44.724Z,674.73
2023-10-26T23:23:11.691Z,556.30
2023-10-26T23:25:43.436Z,610.37
2023-10-26T23:28:10.529Z,507.67
2023-10-26T23:30:37.557Z,765.53
2023-10-26T23:33:05.095Z,667.33
2023-10-26T23:35:35.154Z,583.83
2023-10-26T23:38:02.037Z,675.73
2023-10-26T23:40:32.096Z,667.33
2023-10-26T23:43:02.027Z,797.13
2023-10-26T23:45:29.345Z,863.60
2023-10-26T23:47:56.227Z,671.57
2023-10-26T23:50:23.225Z,471.80
2023-10-26T23:52:51.972Z,606.13
2023-10-26T23:55:19.146Z,601.73
2023-10-26T23:57:46.259Z,581.17
